Time;durP1;ratioP1;P1;durP2;ratioP2;P2;SDS_P1;SDS_P2;PMS_P1;PMS_P2;Temp;Humidity;BMP_temperature;BMP_pressure;BME280_temperature;BME280_humidity;BME280_pressure;Samples;Min_cycle;Max_cycle;Signal;HPM_P1;HPM_P2
2023/04/04 00:00:07;;;;;;;7.57;3.13;;;;;;;8.58;65.43;100049.19;5037518;28;20028;-66
2023/04/04 00:02:33;;;;;;;6.93;2.70;;;;;;;8.53;65.55;100055.28;5037582;28;20157;-66
2023/04/04 00:04:58;;;;;;;6.80;2.92;;;;;;;8.48;65.66;100056.13;5037508;28;20458;-66
2023/04/04 00:07:24;;;;;;;9.73;3.40;;;;;;;8.46;65.60;100059.63;5036216;28;20449;-66
2023/04/04 00:09:49;;;;;;;6.67;2.97;;;;;;;8.46;65.88;100057.00;5037040;28;20063;-66
2023/04/04 00:12:15;;;;;;;6.63;2.80;;;;;;;8.46;65.68;100051.75;5037583;28;20075;-66
2023/04/04 00:14:40;;;;;;;6.40;2.77;;;;;;;8.46;65.43;100068.38;5037110;28;20342;-66
2023/04/04 00:17:06;;;;;;;6.77;2.60;;;;;;;8.47;65.49;100066.63;5037159;28;20025;-66
2023/04/04 00:19:31;;;;;;;6.60;2.70;;;;;;;8.43;65.66;100060.47;5037117;28;20048;-66
2023/04/04 00:21:56;;;;;;;8.35;2.67;;;;;;;8.42;65.43;100063.13;5037535;28;20021;-66
2023/04/04 00:24:22;;;;;;;6.83;2.83;;;;;;;8.41;65.56;100064.00;5037016;28;20029;-65
2023/04/04 00:26:47;;;;;;;5.97;2.47;;;;;;;8.36;65.26;100060.50;5037150;28;20152;-65
2023/04/04 00:29:12;;;;;;;5.93;2.50;;;;;;;8.27;66.11;100062.22;5036446;28;20032;-66
2023/04/04 00:31:38;;;;;;;6.37;2.07;;;;;;;8.25;65.99;100063.09;5035782;28;20175;-65
2023/04/04 00:34:03;;;;;;;5.77;2.73;;;;;;;8.24;65.86;100066.59;5036973;28;20021;-66
2023/04/04 00:36:29;;;;;;;5.40;2.40;;;;;;;8.21;65.68;100062.19;5037251;28;20486;-66
2023/04/04 00:38:54;;;;;;;6.57;2.53;;;;;;;8.20;65.57;100060.44;5036777;28;20299;-66
2023/04/04 00:41:20;;;;;;;5.90;2.27;;;;;;;8.18;65.34;100059.56;5036949;28;20503;-66
2023/04/04 00:43:45;;;;;;;7.05;2.92;;;;;;;8.10;65.76;100053.44;5036436;28;20029;-66
2023/04/04 00:46:13;;;;;;;6.67;2.47;;;;;;;8.01;65.77;100052.53;5056951;28;20031;-66
2023/04/04 00:48:40;;;;;;;6.05;2.35;;;;;;;7.94;65.76;100045.53;5056708;28;20024;-66
2023/04/04 00:51:06;;;;;;;7.13;2.15;;;;;;;7.90;65.91;100049.88;5056706;28;20028;-66
2023/04/04 00:53:32;;;;;;;5.63;2.40;;;;;;;7.87;66.25;100049.88;5052460;28;20018;-66
2023/04/04 00:55:57;;;;;;;5.60;2.10;;;;;;;7.85;66.14;100056.00;5035402;28;20029;-66
2023/04/04 00:58:25;;;;;;;5.77;2.30;;;;;;;7.79;66.40;100050.69;5035139;28;20034;-65
2023/04/04 01:00:51;;;;;;;5.57;2.40;;;;;;;7.74;66.16;100048.09;5036759;28;20051;-65
2023/04/04 01:03:17;;;;;;;6.88;2.67;;;;;;;7.73;66.49;100054.19;5036371;28;20112;-66
2023/04/04 01:05:42;;;;;;;7.30;2.50;;;;;;;7.72;66.58;100055.06;5035160;28;20034;-65
2023/04/04 01:08:08;;;;;;;7.10;2.67;;;;;;;7.70;66.19;100044.56;5036470;28;20041;-66
2023/04/04 01:10:34;;;;;;;7.13;2.70;;;;;;;7.64;65.93;100047.16;5036620;28;20049;-66
2023/04/04 01:13:00;;;;;;;7.15;2.83;;;;;;;7.55;66.31;100041.88;5036231;28;20128;-65
2023/04/04 01:15:25;;;;;;;7.40;2.70;;;;;;;7.49;66.86;100036.59;5036440;28;20060;-65
2023/04/04 01:17:55;;;;;;;8.10;2.80;;;;;;;7.44;66.35;100029.59;5036493;28;20025;-65
2023/04/04 01:20:24;;;;;;;5.95;2.60;;;;;;;7.41;66.97;100029.59;5036417;28;20025;-66
2023/04/04 01:22:52;;;;;;;7.20;2.47;;;;;;;7.36;66.48;100031.31;5036289;28;20410;-65
2023/04/04 01:25:20;;;;;;;6.97;2.80;;;;;;;7.31;67.12;100028.66;5036255;28;20025;-65
2023/04/04 01:27:45;;;;;;;7.55;2.90;;;;;;;7.27;66.81;100031.25;5035856;28;20022;-66
2023/04/04 01:30:12;;;;;;;7.00;2.60;;;;;;;7.23;66.76;100034.72;5036393;28;20037;-66
2023/04/04 01:32:46;;;;;;;5.40;2.40;;;;;;;7.16;66.91;100034.69;5036397;28;20029;-66
2023/04/04 01:35:41;;;;;;;6.75;2.28;;;;;;;7.08;67.50;100023.28;5036074;28;20112;-66
2023/04/04 01:38:25;;;;;;;6.13;2.30;;;;;;;7.01;67.91;100025.00;5036405;28;20026;-65
2023/04/04 01:40:56;;;;;;;5.57;2.20;;;;;;;6.95;67.19;100027.56;5034763;28;20497;-66
2023/04/04 01:43:22;;;;;;;7.00;2.50;;;;;;;6.92;66.95;100027.53;5035943;28;20029;-66
2023/04/04 01:45:48;;;;;;;5.80;2.30;;;;;;;6.93;67.63;100023.19;5036386;28;20032;-66
2023/04/04 01:48:15;;;;;;;5.53;1.92;;;;;;;6.93;67.52;100023.19;5036589;28;20033;-65
2023/04/04 01:50:41;;;;;;;5.40;2.05;;;;;;;6.94;67.42;100024.94;5036256;28;20108;-66
2023/04/04 01:53:06;;;;;;;5.50;2.27;;;;;;;6.94;67.67;100032.81;5036126;28;20081;-66
2023/04/04 01:55:32;;;;;;;6.17;2.10;;;;;;;6.94;67.11;100022.31;5051793;28;20086;-65
2023/04/04 01:57:57;;;;;;;5.90;2.38;;;;;;;6.91;67.60;100027.53;5056150;28;20025;-66
2023/04/04 02:00:23;;;;;;;4.80;1.83;;;;;;;6.88;67.52;100018.81;5045519;28;20405;-65
2023/04/04 02:02:48;;;;;;;6.00;1.87;;;;;;;6.85;66.97;100024.00;5036151;28;20038;-66
2023/04/04 02:05:13;;;;;;;6.03;2.20;;;;;;;6.82;67.06;100029.22;5035988;28;20032;-65
2023/04/04 02:07:39;;;;;;;5.63;2.10;;;;;;;6.77;67.09;100025.69;5036073;28;21328;-65
2023/04/04 02:10:05;;;;;;;5.67;2.20;;;;;;;6.75;67.04;100030.03;5035926;28;20064;-66
2023/04/04 02:12:30;;;;;;;6.07;2.10;;;;;;;6.73;67.47;100029.16;5036029;28;20034;-66
2023/04/04 02:14:55;;;;;;;5.23;1.83;;;;;;;6.69;67.50;100032.63;5035889;28;20061;-65
2023/04/04 02:17:21;;;;;;;6.37;2.30;;;;;;;6.66;67.04;100032.59;5039469;28;20029;-66
2023/04/04 02:19:46;;;;;;;7.27;2.30;;;;;;;6.63;67.16;100029.91;5038135;28;20085;-65
2023/04/04 02:22:12;;;;;;;5.63;2.38;;;;;;;6.57;67.53;100028.16;5039618;28;20108;-66
2023/04/04 02:24:37;;;;;;;5.97;2.60;;;;;;;6.53;67.83;100019.41;5039097;28;20033;-65
2023/04/04 02:27:03;;;;;;;6.33;2.23;;;;;;;6.52;67.33;100020.25;5039433;28;20063;-66
2023/04/04 02:29:28;;;;;;;6.18;2.20;;;;;;;6.49;67.49;100017.63;5038831;28;20093;-66
2023/04/04 02:31:54;;;;;;;5.30;2.13;;;;;;;6.46;67.57;100022.84;5039350;28;20566;-65
2023/04/04 02:34:20;;;;;;;4.97;2.00;;;;;;;6.45;68.02;100023.69;5039107;28;20107;-65
2023/04/04 02:36:45;;;;;;;7.17;2.33;;;;;;;6.47;67.57;100019.34;5048042;28;20039;-65
2023/04/04 02:39:11;;;;;;;5.50;2.30;;;;;;;6.47;67.68;100016.72;5054982;28;20035;-66
2023/04/04 02:41:36;;;;;;;7.47;2.37;;;;;;;6.47;67.74;100014.97;5071249;28;20033;-65
2023/04/04 02:44:01;;;;;;;8.85;2.40;;;;;;;6.44;67.63;100016.72;5038849;28;20033;-65
2023/04/04 02:46:27;;;;;;;6.53;2.60;;;;;;;6.38;68.19;100014.00;5039109;28;20021;-65
2023/04/04 02:48:52;;;;;;;5.63;2.20;;;;;;;6.31;67.83;100006.13;5039002;28;20094;-66
2023/04/04 02:51:18;;;;;;;6.20;2.50;;;;;;;6.28;68.24;100013.94;5038913;28;20067;-65
2023/04/04 02:53:43;;;;;;;6.10;2.40;;;;;;;6.28;67.88;100013.09;5041000;28;20028;-65
2023/04/04 02:56:09;;;;;;;7.23;2.50;;;;;;;6.29;67.67;100012.22;5058799;28;20424;-65
2023/04/04 02:58:34;;;;;;;5.90;2.37;;;;;;;6.30;67.86;100027.06;5058531;28;20021;-65
2023/04/04 03:01:00;;;;;;;5.37;2.07;;;;;;;6.30;68.03;100027.06;5044495;28;20026;-65
2023/04/04 03:03:26;;;;;;;6.03;2.27;;;;;;;6.28;67.45;100032.25;5038655;28;20264;-65
2023/04/04 03:05:51;;;;;;;5.83;2.27;;;;;;;6.29;68.29;100039.22;5037578;28;20050;-65
2023/04/04 03:08:17;;;;;;;6.43;2.70;;;;;;;6.29;67.74;100039.22;5038738;28;20283;-65
2023/04/04 03:10:43;;;;;;;8.03;2.50;;;;;;;6.26;68.10;100039.22;5038436;28;20045;-65
2023/04/04 03:13:09;;;;;;;6.07;2.38;;;;;;;6.22;67.93;100032.19;5038211;28;20021;-65
2023/04/04 03:15:34;;;;;;;7.63;2.43;;;;;;;6.16;67.44;100032.16;5038536;28;20064;-65
2023/04/04 03:18:01;;;;;;;6.40;2.80;;;;;;;6.11;68.19;100034.69;5036981;28;20032;-65
2023/04/04 03:20:27;;;;;;;6.73;2.47;;;;;;;6.05;68.52;100028.53;5037079;28;20032;-65
2023/04/04 03:22:52;;;;;;;7.30;2.47;;;;;;;5.97;68.72;100021.47;5038476;28;20025;-66
2023/04/04 03:25:18;;;;;;;7.10;2.80;;;;;;;5.90;68.08;100022.22;5038122;28;20036;-65
2023/04/04 03:27:43;;;;;;;8.27;2.87;;;;;;;5.85;68.42;100026.53;5036615;28;20035;-65
2023/04/04 03:30:09;;;;;;;7.03;2.70;;;;;;;5.79;68.61;100018.63;5038217;28;20029;-65
2023/04/04 03:32:36;;;;;;;5.85;2.63;;;;;;;5.79;68.58;100016.91;5039668;28;20025;-66
2023/04/04 03:35:02;;;;;;;7.25;3.00;;;;;;;5.78;68.40;100019.50;5058027;28;20527;-65
2023/04/04 03:37:29;;;;;;;7.72;2.92;;;;;;;5.73;68.54;100017.72;5056573;28;20040;-66
2023/04/04 03:39:54;;;;;;;8.02;2.90;;;;;;;5.69;68.74;100028.97;5049609;28;20029;-65
2023/04/04 03:42:20;;;;;;;7.27;3.13;;;;;;;5.69;68.98;100026.38;5037735;28;20032;-65
2023/04/04 03:44:46;;;;;;;8.63;3.30;;;;;;;5.71;68.86;100031.59;5037996;28;20030;-66
2023/04/04 03:47:12;;;;;;;7.87;2.87;;;;;;;5.69;68.28;100030.69;5036478;28;20417;-65
2023/04/04 03:49:38;;;;;;;8.30;2.97;;;;;;;5.66;68.71;100030.66;5037925;28;20075;-65
2023/04/04 03:52:04;;;;;;;7.10;3.07;;;;;;;5.65;68.74;100036.75;5037857;28;20033;-65
2023/04/04 03:54:29;;;;;;;7.53;2.72;;;;;;;5.62;68.77;100040.19;5045894;28;20469;-66
2023/04/04 03:56:56;;;;;;;9.27;3.00;;;;;;;5.60;68.46;100032.34;5057758;28;20029;-66
2023/04/04 03:59:22;;;;;;;7.82;3.10;;;;;;;5.57;68.45;100026.22;5056422;28;20043;-67
2023/04/04 04:01:47;;;;;;;7.85;2.90;;;;;;;5.55;68.63;100027.94;5037813;28;20565;-66
2023/04/04 04:04:13;;;;;;;6.93;2.80;;;;;;;5.56;69.01;100032.28;5037935;28;20036;-66
2023/04/04 04:06:38;;;;;;;8.83;3.37;;;;;;;5.54;68.54;100015.72;5037638;28;20028;-67
2023/04/04 04:09:03;;;;;;;7.23;3.13;;;;;;;5.49;68.86;100026.09;5037614;28;20060;-66
2023/04/04 04:11:29;;;;;;;8.13;3.40;;;;;;;5.44;68.88;100026.06;5037444;28;20053;-66
2023/04/04 04:13:55;;;;;;;9.60;3.90;;;;;;;5.38;69.12;100025.09;5037406;28;20049;-65
2023/04/04 04:16:21;;;;;;;10.38;4.15;;;;;;;5.31;69.43;100030.25;5036100;28;20029;-65
2023/04/04 04:18:47;;;;;;;8.83;4.07;;;;;;;5.26;69.63;100033.66;5036237;28;20028;-66
2023/04/04 04:21:12;;;;;;;9.70;3.33;;;;;;;5.21;69.73;100038.78;5037008;28;20030;-65
2023/04/04 04:23:37;;;;;;;8.20;3.33;;;;;;;5.17;69.32;100040.47;5035844;28;20029;-65
2023/04/04 04:26:04;;;;;;;8.83;3.13;;;;;;;5.19;69.20;100034.44;5037259;28;20048;-65
2023/04/04 04:28:29;;;;;;;7.13;3.20;;;;;;;5.20;69.38;100036.19;5035407;28;20028;-65
2023/04/04 04:30:55;;;;;;;7.43;3.13;;;;;;;5.17;69.53;100043.09;5037049;28;20393;-65
2023/04/04 04:33:28;;;;;;;7.32;3.55;;;;;;;5.15;69.51;100038.72;5037326;28;20022;-65
2023/04/04 04:35:57;;;;;;;7.47;3.05;;;;;;;5.10;69.76;100046.47;5037277;28;20544;-65
2023/04/04 04:38:22;;;;;;;7.87;3.13;;;;;;;5.04;69.83;100038.56;5037020;28;20032;-65
2023/04/04 04:40:48;;;;;;;7.05;3.28;;;;;;;4.98;69.94;100036.72;5035700;28;20490;-65
2023/04/04 04:43:13;;;;;;;8.03;2.80;;;;;;;4.93;69.88;100041.00;5036898;28;20025;-65
2023/04/04 04:45:41;;;;;;;12.00;3.30;;;;;;;4.93;70.12;100046.22;5036954;28;20013;-65
2023/04/04 04:48:06;;;;;;;6.68;3.03;;;;;;;4.95;69.89;100048.88;5037203;28;20096;-65
2023/04/04 04:50:32;;;;;;;7.13;3.10;;;;;;;4.96;69.70;100034.97;5037127;28;20064;-65
2023/04/04 04:52:57;;;;;;;8.95;3.20;;;;;;;4.93;69.44;100046.22;5035547;28;20108;-65
2023/04/04 04:55:23;;;;;;;7.30;3.40;;;;;;;4.86;69.57;100041.78;5052538;28;20035;-65
2023/04/04 04:57:48;;;;;;;7.80;3.43;;;;;;;4.78;69.96;100044.25;5056802;28;20423;-65
2023/04/04 05:00:14;;;;;;;8.97;3.87;;;;;;;4.74;69.80;100048.53;5048825;28;20017;-65
2023/04/04 05:02:40;;;;;;;9.00;4.00;;;;;;;4.69;70.08;100044.97;5036903;28;20256;-65
2023/04/04 05:05:05;;;;;;;9.10;3.95;;;;;;;4.65;70.69;100052.72;5035450;28;20018;-65
2023/04/04 05:07:31;;;;;;;9.90;4.07;;;;;;;4.60;70.64;100050.06;5036763;28;20033;-65
2023/04/04 05:09:56;;;;;;;9.37;4.00;;;;;;;4.54;70.22;100048.22;5036575;28;20030;-66
2023/04/04 05:12:21;;;;;;;9.50;3.60;;;;;;;4.52;70.28;100047.31;5036693;28;20030;-67
2023/04/04 05:14:47;;;;;;;9.02;3.92;;;;;;;4.51;70.86;100045.56;5036768;28;20604;-66
2023/04/04 05:17:12;;;;;;;10.57;3.97;;;;;;;4.55;69.99;100059.50;5035314;28;20097;-67
2023/04/04 05:19:38;;;;;;;8.57;3.60;;;;;;;4.58;70.13;100054.34;5036596;28;20045;-67
2023/04/04 05:22:03;;;;;;;8.45;3.90;;;;;;;4.59;70.22;100059.59;5036918;28;20026;-67
2023/04/04 05:24:29;;;;;;;9.93;4.17;;;;;;;4.57;70.26;100070.84;5037466;28;20497;-65
2023/04/04 05:26:54;;;;;;;11.13;4.33;;;;;;;4.53;70.41;100069.94;5056674;28;20384;-65
2023/04/04 05:29:19;;;;;;;10.23;4.13;;;;;;;4.52;70.41;100070.78;5039067;28;20503;-64
2023/04/04 05:31:46;;;;;;;10.07;4.05;;;;;;;4.48;70.32;100075.91;5036388;28;20021;-65
2023/04/04 05:34:11;;;;;;;10.63;4.43;;;;;;;4.47;70.50;100082.88;5035243;28;20025;-64
2023/04/04 05:36:36;;;;;;;10.93;4.30;;;;;;;4.44;70.33;100074.97;5036631;28;20028;-66
2023/04/04 05:39:05;;;;;;;13.10;4.63;;;;;;;4.41;70.30;100074.91;5036096;28;20291;-65
2023/04/04 05:41:32;;;;;;;11.70;4.07;;;;;;;4.42;70.47;100076.66;5036634;28;20104;-65
2023/04/04 05:43:58;;;;;;;12.23;4.70;;;;;;;4.42;70.10;100082.78;5036186;28;20069;-65
2023/04/04 05:46:24;;;;;;;10.35;4.40;;;;;;;4.44;69.87;100088.00;5036513;28;20030;-65
2023/04/04 05:48:50;;;;;;;11.18;4.47;;;;;;;4.43;70.31;100094.06;5035307;28;20060;-65
2023/04/04 05:51:16;;;;;;;12.70;4.57;;;;;;;4.40;70.68;100100.13;5038458;28;20052;-65
2023/04/04 05:53:44;;;;;;;11.83;4.80;;;;;;;4.41;70.79;100106.19;5041454;28;20025;-63
2023/04/04 05:56:10;;;;;;;11.80;4.93;;;;;;;4.40;70.25;100112.25;5053354;28;20029;-65
2023/04/04 05:58:35;;;;;;;9.80;4.50;;;;;;;4.40;70.71;100110.53;5044773;28;20036;-65
2023/04/04 06:01:02;;;;;;;13.77;4.70;;;;;;;4.51;70.14;100122.88;5037407;28;20033;-65
2023/04/04 06:03:27;;;;;;;11.63;4.75;;;;;;;4.60;70.40;100123.06;5039855;28;20061;-64
2023/04/04 06:05:53;;;;;;;10.13;4.63;;;;;;;4.71;70.29;100124.13;5040062;28;20036;-65
2023/04/04 06:08:18;;;;;;;11.38;5.53;;;;;;;4.87;69.35;100122.66;5039730;28;20033;-67
2023/04/04 06:10:44;;;;;;;10.57;4.77;;;;;;;5.02;68.89;100126.38;5038516;28;20088;-65
2023/04/04 06:13:09;;;;;;;10.20;4.70;;;;;;;5.27;68.59;100126.78;5038196;28;20816;-66
2023/04/04 06:15:35;;;;;;;11.52;4.63;;;;;;;5.53;68.12;100131.50;5039822;28;20026;-65
2023/04/04 06:18:00;;;;;;;9.50;4.33;;;;;;;5.81;67.66;100114.47;5038770;28;20489;-65
2023/04/04 06:20:27;;;;;;;11.30;5.07;;;;;;;6.07;66.73;100127.03;5037268;28;20048;-65
2023/04/04 06:22:53;;;;;;;10.73;4.97;;;;;;;6.35;65.36;100126.44;5054842;28;20443;-65
2023/04/04 06:25:18;;;;;;;9.68;4.18;;;;;;;6.58;65.63;100130.19;5041022;28;20028;-66
2023/04/04 06:27:44;;;;;;;10.57;4.23;;;;;;;6.71;64.92;100132.94;5038905;28;20021;-66
2023/04/04 06:30:10;;;;;;;11.77;4.80;;;;;;;6.85;64.75;100138.31;5040315;28;20548;-66
2023/04/04 06:32:35;;;;;;;11.70;4.70;;;;;;;6.99;64.89;100133.19;5054815;28;20035;-65
2023/04/04 06:35:01;;;;;;;11.07;4.90;;;;;;;7.07;64.66;100122.78;5040590;28;20033;-65
2023/04/04 06:37:26;;;;;;;11.55;5.30;;;;;;;7.11;65.07;100124.56;5037828;28;20061;-66
2023/04/04 06:39:52;;;;;;;10.67;4.80;;;;;;;7.10;64.65;100126.28;5038939;28;20092;-65
2023/04/04 06:42:18;;;;;;;11.07;4.63;;;;;;;7.18;64.28;100132.47;5038872;28;20433;-65
2023/04/04 06:44:43;;;;;;;10.60;4.53;;;;;;;7.29;64.39;100129.03;5039005;28;20079;-65
2023/04/04 06:47:08;;;;;;;11.43;4.93;;;;;;;7.29;65.16;100134.28;5038160;28;20029;-65
2023/04/04 06:49:34;;;;;;;9.83;4.50;;;;;;;7.32;64.88;100123.81;5032856;28;20083;-64
2023/04/04 06:52:00;;;;;;;11.80;4.55;;;;;;;7.39;65.01;100130.00;5038924;28;20029;-65
2023/04/04 06:54:25;;;;;;;11.00;5.07;;;;;;;7.49;64.61;100121.34;5047334;28;20061;-65
2023/04/04 06:56:51;;;;;;;9.85;4.35;;;;;;;7.60;64.72;100121.41;5038610;28;20033;-65
2023/04/04 06:59:17;;;;;;;11.37;5.00;;;;;;;7.75;64.23;100136.34;5037192;28;20049;-65
2023/04/04 07:01:43;;;;;;;11.23;4.65;;;;;;;7.86;64.21;100133.78;5038687;28;20029;-65
2023/04/04 07:04:08;;;;;;;10.93;4.73;;;;;;;7.91;64.30;100134.66;5039118;28;20029;-65
2023/04/04 07:06:33;;;;;;;10.77;4.60;;;;;;;7.99;64.25;100138.19;5038736;28;20500;-65
2023/04/04 07:08:59;;;;;;;11.87;4.60;;;;;;;8.02;64.37;100142.56;5038565;28;20267;-65
2023/04/04 07:11:24;;;;;;;9.10;4.03;;;;;;;8.01;64.09;100136.44;5038689;28;20103;-65
2023/04/04 07:13:50;;;;;;;10.87;4.50;;;;;;;8.09;64.47;100139.09;5038532;28;20044;-65
2023/04/04 07:16:15;;;;;;;9.97;4.20;;;;;;;8.12;63.91;100138.25;5037004;28;20025;-65
2023/04/04 07:18:40;;;;;;;8.80;3.85;;;;;;;8.21;64.24;100137.41;5045960;28;20529;-65
2023/04/04 07:21:06;;;;;;;10.73;3.87;;;;;;;8.23;63.81;100147.03;5044722;28;20033;-65
2023/04/04 07:23:31;;;;;;;10.00;3.90;;;;;;;8.36;63.71;100154.94;5037265;28;20029;-65
2023/04/04 07:25:57;;;;;;;8.37;3.40;;;;;;;8.50;63.37;100147.16;5038415;28;20032;-65
2023/04/04 07:28:22;;;;;;;7.72;3.50;;;;;;;8.59;63.17;100150.69;5038098;28;20452;-65
2023/04/04 07:30:48;;;;;;;8.83;3.77;;;;;;;8.74;63.00;100138.44;5038167;28;20036;-65
2023/04/04 07:33:13;;;;;;;8.17;3.10;;;;;;;8.86;62.45;100143.72;5038412;28;20033;-65
2023/04/04 07:35:39;;;;;;;8.73;3.83;;;;;;;9.01;62.33;100142.84;5038301;28;20033;-65
2023/04/04 07:38:04;;;;;;;7.50;3.40;;;;;;;9.11;62.33;100143.72;5038049;28;20029;-65
2023/04/04 07:40:30;;;;;;;7.77;3.53;;;;;;;9.22;61.80;100140.19;5038282;28;20029;-65
2023/04/04 07:42:56;;;;;;;8.73;3.53;;;;;;;9.29;61.28;100142.84;5037992;28;20126;-65
2023/04/04 07:45:21;;;;;;;9.03;3.33;;;;;;;9.40;61.48;100153.34;5038167;28;20177;-65
2023/04/04 07:47:47;;;;;;;7.10;3.20;;;;;;;9.54;61.48;100157.72;5038166;28;20104;-65
2023/04/04 07:50:13;;;;;;;7.47;2.97;;;;;;;9.67;60.72;100156.78;5038143;28;20126;-65
2023/04/04 07:52:39;;;;;;;6.82;3.15;;;;;;;9.79;60.18;100153.25;5037999;28;20397;-65
2023/04/04 07:55:06;;;;;;;7.67;3.33;;;;;;;9.85;60.01;100152.38;5051269;28;20029;-65
2023/04/04 07:57:40;;;;;;;7.20;3.15;;;;;;;9.92;59.47;100154.09;5056434;28;20492;-66
2023/04/04 08:00:08;;;;;;;7.93;3.20;;;;;;;10.05;59.53;100158.44;5050804;28;20033;-65
2023/04/04 08:02:35;;;;;;;6.28;2.75;;;;;;;10.12;59.08;100151.38;5037931;28;20029;-65
2023/04/04 08:05:00;;;;;;;7.38;3.10;;;;;;;10.19;58.95;100152.25;5037819;28;20026;-65
2023/04/04 08:07:25;;;;;;;6.87;2.90;;;;;;;10.33;59.00;100163.59;5036328;28;20033;-65
2023/04/04 08:09:51;;;;;;;6.03;2.70;;;;;;;10.45;58.54;100159.16;5037275;28;20072;-66
2023/04/04 08:12:16;;;;;;;5.67;2.90;;;;;;;10.77;57.86;100147.59;5037535;28;20066;-65
2023/04/04 08:14:42;;;;;;;6.53;2.85;;;;;;;11.11;56.75;100147.31;5051396;28;20033;-66
2023/04/04 08:17:07;;;;;;;5.87;2.63;;;;;;;11.38;54.72;100141.84;5047934;28;20040;-65
2023/04/04 08:19:33;;;;;;;5.87;2.40;;;;;;;11.69;54.07;100152.94;5037535;28;20116;-65
2023/04/04 08:21:58;;;;;;;6.03;2.60;;;;;;;11.86;53.24;100157.16;5037761;28;20048;-66
2023/04/04 08:24:24;;;;;;;5.30;2.40;;;;;;;11.98;52.56;100149.13;5037156;28;20029;-66
2023/04/04 08:26:49;;;;;;;5.73;2.67;;;;;;;12.03;52.88;100155.25;5037418;28;20672;-65
2023/04/04 08:29:14;;;;;;;7.93;2.87;;;;;;;12.08;53.33;100152.56;5036724;28;20021;-66
2023/04/04 08:31:40;;;;;;;6.50;2.80;;;;;;;12.17;53.70;100154.19;5037215;28;20064;-66
2023/04/04 08:34:07;;;;;;;6.07;2.45;;;;;;;12.30;54.09;100150.50;5037261;28;20022;-66
2023/04/04 08:36:33;;;;;;;7.33;3.20;;;;;;;12.39;53.46;100145.97;5037453;28;20057;-66
2023/04/04 08:38:58;;;;;;;6.47;3.17;;;;;;;12.35;53.77;100146.03;5036897;28;20040;-66
2023/04/04 08:41:25;;;;;;;7.17;2.60;;;;;;;12.36;54.43;100141.63;5035853;28;20033;-66
2023/04/04 08:43:53;;;;;;;6.28;2.95;;;;;;;12.38;53.97;100146.88;5036781;28;20025;-66
2023/04/04 08:46:22;;;;;;;7.13;3.42;;;;;;;12.33;53.63;100145.19;5035797;28;20064;-66
2023/04/04 08:48:49;;;;;;;7.13;2.92;;;;;;;12.31;53.64;100144.31;5037068;28;20097;-66
2023/04/04 08:51:16;;;;;;;7.18;3.35;;;;;;;12.40;53.54;100134.53;5037196;28;20033;-66
2023/04/04 08:53:42;;;;;;;5.63;2.70;;;;;;;12.42;53.64;100143.28;5038451;28;20037;-66
2023/04/04 08:56:08;;;;;;;5.88;2.58;;;;;;;12.47;53.62;100141.50;5056934;28;20029;-66
2023/04/04 08:58:33;;;;;;;6.63;2.40;;;;;;;12.58;53.64;100142.19;5056619;28;20447;-66
2023/04/04 09:00:59;;;;;;;6.17;2.90;;;;;;;12.67;53.07;100150.91;5042877;28;20432;-66
2023/04/04 09:03:31;;;;;;;5.97;2.50;;;;;;;12.64;52.25;100154.44;5036997;28;20021;-66
2023/04/04 09:05:57;;;;;;;5.93;2.40;;;;;;;12.62;52.64;100146.53;5037104;28;20021;-66
2023/04/04 09:08:23;;;;;;;4.90;2.13;;;;;;;12.74;52.27;100147.25;5035267;28;20033;-66
2023/04/04 09:10:50;;;;;;;5.87;2.53;;;;;;;12.83;51.94;100154.19;5044575;28;20044;-66
2023/04/04 09:13:15;;;;;;;5.10;2.10;;;;;;;12.82;51.79;100144.50;5056554;28;20025;-66
2023/04/04 09:15:46;;;;;;;4.43;1.75;;;;;;;12.88;51.72;100147.91;5055439;28;20513;-66
2023/04/04 09:18:11;;;;;;;5.23;2.00;;;;;;;13.02;51.10;100149.47;5038303;28;20021;-66
2023/04/04 09:20:47;;;;;;;5.30;2.20;;;;;;;13.03;50.44;100154.75;5035471;28;20025;-66
2023/04/04 09:23:16;;;;;;;5.20;1.77;;;;;;;13.18;50.06;100158.91;5035020;28;20032;-66
2023/04/04 09:25:49;;;;;;;5.07;2.10;;;;;;;13.19;49.13;100151.84;5039618;28;20025;-66
2023/04/04 09:28:16;;;;;;;5.82;2.08;;;;;;;13.19;49.23;100157.13;5038913;28;20481;-66
2023/04/04 09:30:43;;;;;;;4.90;2.10;;;;;;;13.17;49.65;100154.53;5040647;28;20033;-66
2023/04/04 09:33:11;;;;;;;4.40;2.17;;;;;;;13.23;49.78;100160.59;5040511;28;20028;-66
2023/04/04 09:35:40;;;;;;;7.00;2.20;;;;;;;13.32;49.72;100157.78;5039320;28;20040;-66
2023/04/04 09:38:06;;;;;;;5.60;1.80;;;;;;;13.42;49.76;100158.50;5040502;28;20474;-66
2023/04/04 09:40:32;;;;;;;4.82;1.80;;;;;;;13.52;48.79;100169.84;5040548;28;20104;-66
2023/04/04 09:43:05;;;;;;;4.25;1.70;;;;;;;13.57;48.82;100160.03;5027343;28;20032;-66
2023/04/04 09:45:34;;;;;;;5.10;2.00;;;;;;;13.58;48.23;100164.41;5040170;28;20025;-66
2023/04/04 09:48:00;;;;;;;4.45;1.80;;;;;;;13.55;47.71;100169.78;5040417;28;20057;-66
2023/04/04 09:50:27;;;;;;;5.10;1.83;;;;;;;13.53;48.40;100166.28;5040343;28;20496;-66
2023/04/04 09:52:56;;;;;;;5.22;1.77;;;;;;;13.66;48.40;100167.81;5040198;28;20029;-66
2023/04/04 09:55:35;;;;;;;6.45;2.45;;;;;;;13.75;48.18;100162.34;5055573;28;20037;-66
2023/04/04 09:58:27;;;;;;;5.10;1.98;;;;;;;13.76;47.88;100169.38;5058513;28;20021;-66
2023/04/04 10:00:59;;;;;;;5.40;1.70;;;;;;;13.90;48.23;100166.47;5043704;28;20030;-66
2023/04/04 10:03:25;;;;;;;4.60;1.80;;;;;;;14.09;48.60;100166.09;5038710;28;20122;-66
2023/04/04 10:06:12;;;;;;;4.38;1.70;;;;;;;14.33;47.13;100170.00;5039911;28;20038;-66
2023/04/04 10:08:41;;;;;;;4.40;1.80;;;;;;;14.41;46.29;100171.66;5057552;28;20021;-66
2023/04/04 10:11:08;;;;;;;5.10;1.83;;;;;;;14.40;46.35;100169.91;5059914;28;20053;-66
2023/04/04 10:13:35;;;;;;;4.32;1.45;;;;;;;14.33;46.71;100172.66;5059538;28;20033;-66
2023/04/04 10:16:02;;;;;;;4.60;1.60;;;;;;;14.44;46.35;100171.56;5058230;28;20029;-66
2023/04/04 10:18:33;;;;;;;4.45;1.70;;;;;;;14.55;45.86;100174.00;5039706;28;20103;-66
2023/04/04 10:21:01;;;;;;;5.15;1.90;;;;;;;14.61;45.88;100174.72;5038408;28;20029;-66
2023/04/04 10:23:27;;;;;;;5.03;1.90;;;;;;;14.74;45.84;100180.66;5039667;28;20102;-66
2023/04/04 10:25:56;;;;;;;3.88;1.30;;;;;;;14.85;45.59;100183.06;5039636;28;20054;-66
2023/04/04 10:28:22;;;;;;;4.50;1.48;;;;;;;14.92;45.42;100176.72;5038881;28;20037;-64
2023/04/04 10:31:14;;;;;;;4.50;1.75;;;;;;;14.89;44.55;100182.09;5039445;28;20387;-65
2023/04/04 10:33:49;;;;;;;4.60;1.80;;;;;;;14.82;44.03;100177.81;5039584;28;20056;-65
2023/04/04 10:36:23;;;;;;;4.68;1.63;;;;;;;14.86;45.55;100173.31;5038803;28;20025;-65
2023/04/04 10:39:50;;;;;;;4.30;1.67;;;;;;;14.98;44.63;100180.13;5039388;28;20029;-65
2023/04/04 10:42:18;;;;;;;4.93;1.60;;;;;;;15.10;44.63;100185.13;4995475;28;20038;-65
2023/04/04 10:44:44;;;;;;;4.68;1.65;;;;;;;15.31;44.94;100190.81;5039005;28;20088;-65
2023/04/04 10:47:18;;;;;;;4.67;1.97;;;;;;;15.32;43.66;100193.44;5039294;28;20021;-65
2023/04/04 10:49:45;;;;;;;4.05;1.63;;;;;;;15.45;43.89;100188.69;5039375;28;20061;-65
2023/04/04 10:52:13;;;;;;;4.32;1.60;;;;;;;15.60;43.55;100198.03;5039234;28;20072;-65
2023/04/04 10:54:40;;;;;;;4.47;1.70;;;;;;;15.65;44.34;100189.94;5048730;28;20028;-65
2023/04/04 10:57:06;;;;;;;4.65;1.70;;;;;;;15.81;44.01;100192.22;5057456;28;20405;-65
2023/04/04 10:59:31;;;;;;;3.77;1.50;;;;;;;15.88;43.75;100185.81;5056961;28;20021;-65
2023/04/04 11:01:59;;;;;;;4.37;1.47;;;;;;;16.00;43.25;100185.50;5042014;28;20077;-65
2023/04/04 11:04:37;;;;;;;4.47;1.52;;;;;;;16.07;42.42;100183.53;5058925;28;20036;-65
2023/04/04 11:07:05;;;;;;;3.95;1.50;;;;;;;16.10;42.09;100186.09;5057450;28;20040;-65
2023/04/04 11:09:54;;;;;;;4.70;1.40;;;;;;;16.11;41.64;100181.69;5058752;28;20024;-66
2023/04/04 11:12:46;;;;;;;4.97;1.90;;;;;;;16.15;41.57;100194.81;5058759;28;20068;-65
2023/04/04 11:15:15;;;;;;;5.00;1.93;;;;;;;16.21;41.41;100199.09;5058531;28;20021;-66
2023/04/04 11:17:49;;;;;;;3.97;1.60;;;;;;;16.15;40.71;100196.59;5044742;28;20072;-66
2023/04/04 11:20:29;;;;;;;4.45;1.98;;;;;;;16.09;40.90;100191.47;5038842;28;20028;-66
2023/04/04 11:23:09;;;;;;;4.60;1.60;;;;;;;15.96;40.70;100197.13;5038528;28;20033;-66
2023/04/04 11:25:49;;;;;;;3.90;1.70;;;;;;;15.95;41.17;100200.69;5038664;28;20100;-66
2023/04/04 11:28:27;;;;;;;5.03;1.60;;;;;;;16.03;41.33;100190.72;5038040;28;20022;-66